sensor_id;sensor_type;location;lat;lon;timestamp;P1;durP1;ratioP1;P2;durP2;ratioP2
10452;SDS011;5274;51.992;8.518;2023-06-22T00:01:51;59.35;;;55.03;;
10452;SDS011;5274;51.992;8.518;2023-06-22T00:04:17;61.60;;;57.22;;
10452;SDS011;5274;51.992;8.518;2023-06-22T00:06:43;62.53;;;58.13;;
10452;SDS011;5274;51.992;8.518;2023-06-22T00:09:09;62.28;;;57.78;;
10452;SDS011;5274;51.992;8.518;2023-06-22T00:11:36;60.50;;;56.40;;
10452;SDS011;5274;51.992;8.518;2023-06-22T00:14:02;56.50;;;52.70;;
10452;SDS011;5274;51.992;8.518;2023-06-22T00:16:28;56.78;;;53.00;;
10452;SDS011;5274;51.992;8.518;2023-06-22T00:18:54;56.53;;;52.80;;
10452;SDS011;5274;51.992;8.518;2023-06-22T00:21:20;55.92;;;52.13;;
10452;SDS011;5274;51.992;8.518;2023-06-22T00:23:46;57.97;;;54.08;;
10452;SDS011;5274;51.992;8.518;2023-06-22T00:26:12;57.67;;;53.67;;
10452;SDS011;5274;51.992;8.518;2023-06-22T00:28:38;57.78;;;53.85;;
10452;SDS011;5274;51.992;8.518;2023-06-22T00:31:04;58.72;;;54.83;;
10452;SDS011;5274;51.992;8.518;2023-06-22T00:33:30;59.35;;;55.35;;
10452;SDS011;5274;51.992;8.518;2023-06-22T00:35:56;58.25;;;54.42;;
10452;SDS011;5274;51.992;8.518;2023-06-22T00:38:22;60.95;;;56.85;;
10452;SDS011;5274;51.992;8.518;2023-06-22T00:40:48;61.10;;;56.90;;
10452;SDS011;5274;51.992;8.518;2023-06-22T00:43:14;60.47;;;56.25;;
10452;SDS011;5274;51.992;8.518;2023-06-22T00:45:40;60.92;;;56.50;;
10452;SDS011;5274;51.992;8.518;2023-06-22T00:48:06;62.08;;;57.97;;
10452;SDS011;5274;51.992;8.518;2023-06-22T00:50:33;60.55;;;56.35;;
10452;SDS011;5274;51.992;8.518;2023-06-22T00:53:01;60.65;;;56.55;;
10452;SDS011;5274;51.992;8.518;2023-06-22T00:55:32;60.38;;;56.38;;
10452;SDS011;5274;51.992;8.518;2023-06-22T00:58:00;58.53;;;54.38;;
10452;SDS011;5274;51.992;8.518;2023-06-22T01:00:27;57.53;;;53.83;;
10452;SDS011;5274;51.992;8.518;2023-06-22T01:02:53;60.42;;;56.28;;
10452;SDS011;5274;51.992;8.518;2023-06-22T01:05:19;58.10;;;54.38;;
10452;SDS011;5274;51.992;8.518;2023-06-22T01:10:33;59.90;;;55.83;;
10452;SDS011;5274;51.992;8.518;2023-06-22T01:13:02;59.88;;;55.85;;
10452;SDS011;5274;51.992;8.518;2023-06-22T01:15:36;59.22;;;55.25;;
10452;SDS011;5274;51.992;8.518;2023-06-22T01:18:04;60.15;;;56.15;;
10452;SDS011;5274;51.992;8.518;2023-06-22T01:20:30;59.83;;;55.72;;
10452;SDS011;5274;51.992;8.518;2023-06-22T01:23:05;59.17;;;55.10;;
10452;SDS011;5274;51.992;8.518;2023-06-22T01:25:46;57.92;;;54.05;;
10452;SDS011;5274;51.992;8.518;2023-06-22T01:30:57;56.60;;;52.60;;
10452;SDS011;5274;51.992;8.518;2023-06-22T01:33:31;51.13;;;47.58;;
10452;SDS011;5274;51.992;8.518;2023-06-22T01:35:58;50.47;;;47.30;;
10452;SDS011;5274;51.992;8.518;2023-06-22T01:38:25;51.50;;;48.10;;
10452;SDS011;5274;51.992;8.518;2023-06-22T01:40:51;52.25;;;48.83;;
10452;SDS011;5274;51.992;8.518;2023-06-22T01:43:18;51.83;;;48.42;;
10452;SDS011;5274;51.992;8.518;2023-06-22T01:45:45;50.45;;;47.30;;
10452;SDS011;5274;51.992;8.518;2023-06-22T01:48:11;53.38;;;49.83;;
10452;SDS011;5274;51.992;8.518;2023-06-22T01:50:36;54.63;;;51.30;;
10452;SDS011;5274;51.992;8.518;2023-06-22T01:53:02;54.20;;;50.50;;
10452;SDS011;5274;51.992;8.518;2023-06-22T01:55:30;53.22;;;49.70;;
10452;SDS011;5274;51.992;8.518;2023-06-22T01:57:56;52.03;;;48.72;;
10452;SDS011;5274;51.992;8.518;2023-06-22T02:00:21;50.30;;;46.90;;
10452;SDS011;5274;51.992;8.518;2023-06-22T02:02:52;51.13;;;47.92;;
10452;SDS011;5274;51.992;8.518;2023-06-22T02:05:19;52.85;;;48.97;;
10452;SDS011;5274;51.992;8.518;2023-06-22T02:07:47;52.83;;;49.58;;
10452;SDS011;5274;51.992;8.518;2023-06-22T02:10:14;56.15;;;52.45;;
10452;SDS011;5274;51.992;8.518;2023-06-22T02:12:41;54.17;;;50.88;;
10452;SDS011;5274;51.992;8.518;2023-06-22T02:15:09;54.38;;;51.03;;
10452;SDS011;5274;51.992;8.518;2023-06-22T02:17:35;50.13;;;46.92;;
10452;SDS011;5274;51.992;8.518;2023-06-22T02:20:04;51.65;;;48.17;;
10452;SDS011;5274;51.992;8.518;2023-06-22T02:22:32;55.42;;;51.80;;
10452;SDS011;5274;51.992;8.518;2023-06-22T02:24:58;54.65;;;51.13;;
10452;SDS011;5274;51.992;8.518;2023-06-22T02:27:24;53.35;;;50.00;;
10452;SDS011;5274;51.992;8.518;2023-06-22T02:29:50;55.63;;;52.13;;
10452;SDS011;5274;51.992;8.518;2023-06-22T02:32:16;53.40;;;49.75;;
10452;SDS011;5274;51.992;8.518;2023-06-22T02:34:42;53.67;;;50.28;;
10452;SDS011;5274;51.992;8.518;2023-06-22T02:37:12;52.65;;;49.13;;
10452;SDS011;5274;51.992;8.518;2023-06-22T02:39:39;52.80;;;48.95;;
10452;SDS011;5274;51.992;8.518;2023-06-22T02:42:05;53.22;;;49.63;;
10452;SDS011;5274;51.992;8.518;2023-06-22T02:44:31;52.55;;;49.15;;
10452;SDS011;5274;51.992;8.518;2023-06-22T02:46:57;54.17;;;50.50;;
10452;SDS011;5274;51.992;8.518;2023-06-22T02:49:23;55.10;;;51.30;;
10452;SDS011;5274;51.992;8.518;2023-06-22T02:51:49;52.70;;;49.08;;
10452;SDS011;5274;51.992;8.518;2023-06-22T02:54:15;57.00;;;53.35;;
10452;SDS011;5274;51.992;8.518;2023-06-22T02:56:41;57.08;;;53.25;;
10452;SDS011;5274;51.992;8.518;2023-06-22T02:59:08;56.05;;;52.35;;
10452;SDS011;5274;51.992;8.518;2023-06-22T03:01:36;54.28;;;50.67;;
10452;SDS011;5274;51.992;8.518;2023-06-22T03:04:08;56.20;;;52.20;;
10452;SDS011;5274;51.992;8.518;2023-06-22T03:06:34;55.97;;;52.38;;
10452;SDS011;5274;51.992;8.518;2023-06-22T03:09:01;56.30;;;52.70;;
10452;SDS011;5274;51.992;8.518;2023-06-22T03:11:28;56.22;;;52.22;;
10452;SDS011;5274;51.992;8.518;2023-06-22T03:13:54;57.22;;;53.45;;
10452;SDS011;5274;51.992;8.518;2023-06-22T03:16:20;64.28;;;59.22;;
10452;SDS011;5274;51.992;8.518;2023-06-22T03:18:46;63.95;;;59.05;;
10452;SDS011;5274;51.992;8.518;2023-06-22T03:21:12;64.85;;;59.72;;
10452;SDS011;5274;51.992;8.518;2023-06-22T03:23:40;56.85;;;52.65;;
10452;SDS011;5274;51.992;8.518;2023-06-22T03:26:06;57.05;;;52.78;;
10452;SDS011;5274;51.992;8.518;2023-06-22T03:28:32;54.78;;;50.83;;
10452;SDS011;5274;51.992;8.518;2023-06-22T03:30:58;60.45;;;55.97;;
10452;SDS011;5274;51.992;8.518;2023-06-22T03:33:24;62.17;;;57.35;;
10452;SDS011;5274;51.992;8.518;2023-06-22T03:35:49;58.72;;;54.22;;
10452;SDS011;5274;51.992;8.518;2023-06-22T03:38:16;63.17;;;58.40;;
10452;SDS011;5274;51.992;8.518;2023-06-22T03:40:42;58.08;;;53.88;;
10452;SDS011;5274;51.992;8.518;2023-06-22T03:43:08;56.60;;;51.88;;
10452;SDS011;5274;51.992;8.518;2023-06-22T03:45:34;58.83;;;53.95;;
10452;SDS011;5274;51.992;8.518;2023-06-22T03:48:00;56.58;;;52.47;;
10452;SDS011;5274;51.992;8.518;2023-06-22T03:50:26;51.78;;;47.97;;
10452;SDS011;5274;51.992;8.518;2023-06-22T03:52:52;57.58;;;53.25;;
10452;SDS011;5274;51.992;8.518;2023-06-22T03:55:19;55.65;;;51.58;;
10452;SDS011;5274;51.992;8.518;2023-06-22T03:57:45;55.25;;;51.10;;
10452;SDS011;5274;51.992;8.518;2023-06-22T04:00:11;58.33;;;53.90;;
10452;SDS011;5274;51.992;8.518;2023-06-22T04:02:37;54.60;;;50.55;;
10452;SDS011;5274;51.992;8.518;2023-06-22T04:05:04;53.75;;;49.80;;
10452;SDS011;5274;51.992;8.518;2023-06-22T04:07:30;55.17;;;51.28;;
10452;SDS011;5274;51.992;8.518;2023-06-22T04:09:56;57.75;;;53.47;;
10452;SDS011;5274;51.992;8.518;2023-06-22T04:12:22;54.78;;;50.55;;
10452;SDS011;5274;51.992;8.518;2023-06-22T04:14:47;54.00;;;49.90;;
10452;SDS011;5274;51.992;8.518;2023-06-22T04:17:13;52.75;;;48.67;;
10452;SDS011;5274;51.992;8.518;2023-06-22T04:19:40;53.65;;;49.72;;
10452;SDS011;5274;51.992;8.518;2023-06-22T04:22:06;55.20;;;50.95;;
10452;SDS011;5274;51.992;8.518;2023-06-22T04:24:32;52.55;;;48.55;;
10452;SDS011;5274;51.992;8.518;2023-06-22T04:26:58;52.38;;;48.15;;
10452;SDS011;5274;51.992;8.518;2023-06-22T04:29:28;53.67;;;49.72;;
10452;SDS011;5274;51.992;8.518;2023-06-22T04:31:54;53.63;;;49.38;;
10452;SDS011;5274;51.992;8.518;2023-06-22T04:34:22;50.75;;;46.65;;
10452;SDS011;5274;51.992;8.518;2023-06-22T04:36:51;50.65;;;46.95;;
10452;SDS011;5274;51.992;8.518;2023-06-22T04:39:17;54.25;;;50.30;;
10452;SDS011;5274;51.992;8.518;2023-06-22T04:41:43;49.15;;;45.58;;
10452;SDS011;5274;51.992;8.518;2023-06-22T04:44:10;52.22;;;48.42;;
10452;SDS011;5274;51.992;8.518;2023-06-22T04:46:36;47.15;;;43.70;;
10452;SDS011;5274;51.992;8.518;2023-06-22T04:49:06;49.70;;;45.90;;
10452;SDS011;5274;51.992;8.518;2023-06-22T04:51:34;52.15;;;48.25;;
10452;SDS011;5274;51.992;8.518;2023-06-22T04:54:00;49.05;;;45.33;;
10452;SDS011;5274;51.992;8.518;2023-06-22T04:56:26;50.88;;;47.17;;
10452;SDS011;5274;51.992;8.518;2023-06-22T04:58:55;52.90;;;48.63;;
10452;SDS011;5274;51.992;8.518;2023-06-22T05:01:21;54.92;;;50.53;;
10452;SDS011;5274;51.992;8.518;2023-06-22T05:03:47;48.85;;;45.15;;
10452;SDS011;5274;51.992;8.518;2023-06-22T05:06:13;51.08;;;47.42;;
10452;SDS011;5274;51.992;8.518;2023-06-22T05:08:40;55.42;;;51.40;;
10452;SDS011;5274;51.992;8.518;2023-06-22T05:11:06;52.78;;;48.42;;
10452;SDS011;5274;51.992;8.518;2023-06-22T05:13:32;51.45;;;47.42;;
10452;SDS011;5274;51.992;8.518;2023-06-22T05:15:58;54.08;;;49.90;;
10452;SDS011;5274;51.992;8.518;2023-06-22T05:18:29;49.00;;;45.47;;
10452;SDS011;5274;51.992;8.518;2023-06-22T05:20:55;50.45;;;46.92;;
10452;SDS011;5274;51.992;8.518;2023-06-22T05:23:21;50.83;;;47.20;;
10452;SDS011;5274;51.992;8.518;2023-06-22T05:25:47;50.15;;;46.50;;
10452;SDS011;5274;51.992;8.518;2023-06-22T05:28:13;48.55;;;44.95;;
10452;SDS011;5274;51.992;8.518;2023-06-22T05:30:39;57.83;;;53.17;;
10452;SDS011;5274;51.992;8.518;2023-06-22T05:33:05;53.65;;;49.72;;
10452;SDS011;5274;51.992;8.518;2023-06-22T05:35:31;50.95;;;47.33;;
10452;SDS011;5274;51.992;8.518;2023-06-22T05:37:57;51.15;;;47.63;;
10452;SDS011;5274;51.992;8.518;2023-06-22T05:40:23;49.80;;;46.15;;
10452;SDS011;5274;51.992;8.518;2023-06-22T05:42:48;51.30;;;47.35;;
10452;SDS011;5274;51.992;8.518;2023-06-22T05:45:14;53.08;;;49.22;;
10452;SDS011;5274;51.992;8.518;2023-06-22T05:47:40;55.33;;;51.20;;
10452;SDS011;5274;51.992;8.518;2023-06-22T05:50:06;56.72;;;52.45;;
10452;SDS011;5274;51.992;8.518;2023-06-22T05:52:33;58.30;;;53.95;;
10452;SDS011;5274;51.992;8.518;2023-06-22T05:54:59;54.63;;;50.78;;
10452;SDS011;5274;51.992;8.518;2023-06-22T05:57:25;49.40;;;45.55;;
10452;SDS011;5274;51.992;8.518;2023-06-22T05:59:51;51.58;;;47.78;;
10452;SDS011;5274;51.992;8.518;2023-06-22T06:02:18;50.95;;;46.95;;
10452;SDS011;5274;51.992;8.518;2023-06-22T06:04:44;51.47;;;47.78;;
10452;SDS011;5274;51.992;8.518;2023-06-22T06:07:10;62.08;;;57.17;;
10452;SDS011;5274;51.992;8.518;2023-06-22T06:09:36;63.92;;;58.90;;
10452;SDS011;5274;51.992;8.518;2023-06-22T06:12:02;64.10;;;58.80;;
10452;SDS011;5274;51.992;8.518;2023-06-22T06:14:28;61.80;;;57.10;;
10452;SDS011;5274;51.992;8.518;2023-06-22T06:16:54;60.42;;;55.65;;
10452;SDS011;5274;51.992;8.518;2023-06-22T06:19:20;63.35;;;58.67;;
10452;SDS011;5274;51.992;8.518;2023-06-22T06:21:46;65.90;;;61.05;;
10452;SDS011;5274;51.992;8.518;2023-06-22T06:24:12;56.13;;;52.33;;
10452;SDS011;5274;51.992;8.518;2023-06-22T06:26:38;52.53;;;48.85;;
10452;SDS011;5274;51.992;8.518;2023-06-22T06:29:04;66.40;;;61.00;;
10452;SDS011;5274;51.992;8.518;2023-06-22T06:31:30;24.15;;;21.95;;
10452;SDS011;5274;51.992;8.518;2023-06-22T06:33:56;21.88;;;20.20;;
10452;SDS011;5274;51.992;8.518;2023-06-22T06:36:22;24.45;;;22.13;;
10452;SDS011;5274;51.992;8.518;2023-06-22T06:38:48;21.80;;;19.88;;
10452;SDS011;5274;51.992;8.518;2023-06-22T06:41:15;22.80;;;20.85;;
10452;SDS011;5274;51.992;8.518;2023-06-22T06:43:41;22.27;;;20.48;;
10452;SDS011;5274;51.992;8.518;2023-06-22T06:46:10;21.75;;;19.50;;
10452;SDS011;5274;51.992;8.518;2023-06-22T06:48:36;20.95;;;19.08;;
10452;SDS011;5274;51.992;8.518;2023-06-22T06:51:02;19.67;;;17.98;;
10452;SDS011;5274;51.992;8.518;2023-06-22T06:53:28;20.88;;;18.98;;
10452;SDS011;5274;51.992;8.518;2023-06-22T06:55:54;21.75;;;19.95;;
10452;SDS011;5274;51.992;8.518;2023-06-22T06:58:20;22.27;;;20.42;;
10452;SDS011;5274;51.992;8.518;2023-06-22T07:00:47;24.38;;;22.40;;
10452;SDS011;5274;51.992;8.518;2023-06-22T07:03:14;24.38;;;22.55;;
10452;SDS011;5274;51.992;8.518;2023-06-22T07:05:39;20.50;;;18.80;;
10452;SDS011;5274;51.992;8.518;2023-06-22T07:08:05;22.00;;;20.20;;
10452;SDS011;5274;51.992;8.518;2023-06-22T07:10:31;21.48;;;19.67;;
10452;SDS011;5274;51.992;8.518;2023-06-22T07:12:57;21.52;;;19.88;;
10452;SDS011;5274;51.992;8.518;2023-06-22T07:15:23;20.05;;;18.33;;
10452;SDS011;5274;51.992;8.518;2023-06-22T07:17:49;21.20;;;19.50;;
10452;SDS011;5274;51.992;8.518;2023-06-22T07:20:15;18.20;;;16.50;;
10452;SDS011;5274;51.992;8.518;2023-06-22T07:22:42;18.52;;;16.83;;
10452;SDS011;5274;51.992;8.518;2023-06-22T07:25:09;20.40;;;18.70;;
10452;SDS011;5274;51.992;8.518;2023-06-22T07:27:38;20.27;;;18.33;;
10452;SDS011;5274;51.992;8.518;2023-06-22T07:30:08;19.92;;;18.08;;
10452;SDS011;5274;51.992;8.518;2023-06-22T07:32:34;21.77;;;20.02;;
10452;SDS011;5274;51.992;8.518;2023-06-22T07:35:00;22.65;;;20.85;;
10452;SDS011;5274;51.992;8.518;2023-06-22T07:37:26;19.73;;;17.65;;
10452;SDS011;5274;51.992;8.518;2023-06-22T07:39:53;20.13;;;18.38;;
10452;SDS011;5274;51.992;8.518;2023-06-22T07:42:23;22.00;;;19.90;;
10452;SDS011;5274;51.992;8.518;2023-06-22T07:44:49;21.23;;;19.52;;
10452;SDS011;5274;51.992;8.518;2023-06-22T07:47:15;21.60;;;19.73;;
10452;SDS011;5274;51.992;8.518;2023-06-22T07:49:44;20.02;;;18.33;;
10452;SDS011;5274;51.992;8.518;2023-06-22T07:52:10;21.08;;;19.40;;
10452;SDS011;5274;51.992;8.518;2023-06-22T07:54:36;22.75;;;20.95;;
10452;SDS011;5274;51.992;8.518;2023-06-22T07:57:02;22.33;;;20.73;;
10452;SDS011;5274;51.992;8.518;2023-06-22T07:59:28;20.52;;;18.92;;
10452;SDS011;5274;51.992;8.518;2023-06-22T08:01:54;20.73;;;19.13;;
10452;SDS011;5274;51.992;8.518;2023-06-22T08:04:20;21.10;;;19.40;;
10452;SDS011;5274;51.992;8.518;2023-06-22T08:06:46;23.35;;;21.55;;
10452;SDS011;5274;51.992;8.518;2023-06-22T08:09:12;20.88;;;19.17;;
10452;SDS011;5274;51.992;8.518;2023-06-22T08:11:38;22.98;;;21.33;;
10452;SDS011;5274;51.992;8.518;2023-06-22T08:14:04;22.42;;;20.30;;
10452;SDS011;5274;51.992;8.518;2023-06-22T08:16:30;21.30;;;19.50;;
10452;SDS011;5274;51.992;8.518;2023-06-22T08:18:56;20.35;;;18.70;;
10452;SDS011;5274;51.992;8.518;2023-06-22T08:21:22;24.45;;;22.65;;
10452;SDS011;5274;51.992;8.518;2023-06-22T08:23:48;24.48;;;22.48;;
10452;SDS011;5274;51.992;8.518;2023-06-22T08:26:14;23.83;;;21.92;;
10452;SDS011;5274;51.992;8.518;2023-06-22T08:28:40;23.23;;;21.20;;
10452;SDS011;5274;51.992;8.518;2023-06-22T08:31:06;23.60;;;21.60;;
10452;SDS011;5274;51.992;8.518;2023-06-22T08:33:33;24.80;;;22.73;;
10452;SDS011;5274;51.992;8.518;2023-06-22T08:35:59;23.70;;;21.55;;
10452;SDS011;5274;51.992;8.518;2023-06-22T08:38:25;24.08;;;22.17;;
10452;SDS011;5274;51.992;8.518;2023-06-22T08:40:51;22.35;;;20.63;;
10452;SDS011;5274;51.992;8.518;2023-06-22T08:43:17;25.52;;;23.20;;
10452;SDS011;5274;51.992;8.518;2023-06-22T08:45:43;23.58;;;21.77;;
10452;SDS011;5274;51.992;8.518;2023-06-22T08:48:09;21.83;;;20.23;;
10452;SDS011;5274;51.992;8.518;2023-06-22T08:50:35;24.58;;;22.73;;
10452;SDS011;5274;51.992;8.518;2023-06-22T08:53:01;23.45;;;21.40;;
10452;SDS011;5274;51.992;8.518;2023-06-22T08:55:27;22.88;;;21.00;;
10452;SDS011;5274;51.992;8.518;2023-06-22T08:57:53;23.95;;;21.95;;
10452;SDS011;5274;51.992;8.518;2023-06-22T09:00:20;23.85;;;22.00;;
10452;SDS011;5274;51.992;8.518;2023-06-22T09:02:46;24.52;;;22.38;;
10452;SDS011;5274;51.992;8.518;2023-06-22T09:05:12;24.65;;;22.48;;
10452;SDS011;5274;51.992;8.518;2023-06-22T09:07:38;25.42;;;23.23;;
10452;SDS011;5274;51.992;8.518;2023-06-22T09:10:05;25.20;;;23.08;;
10452;SDS011;5274;51.992;8.518;2023-06-22T09:12:31;25.50;;;23.50;;
10452;SDS011;5274;51.992;8.518;2023-06-22T09:14:57;24.15;;;22.02;;
10452;SDS011;5274;51.992;8.518;2023-06-22T09:17:25;23.08;;;21.13;;
10452;SDS011;5274;51.992;8.518;2023-06-22T09:19:51;25.80;;;23.60;;
10452;SDS011;5274;51.992;8.518;2023-06-22T09:22:17;22.92;;;21.02;;
10452;SDS011;5274;51.992;8.518;2023-06-22T09:24:43;21.60;;;19.90;;
10452;SDS011;5274;51.992;8.518;2023-06-22T09:27:08;22.65;;;20.80;;
10452;SDS011;5274;51.992;8.518;2023-06-22T09:29:34;21.58;;;19.98;;
10452;SDS011;5274;51.992;8.518;2023-06-22T09:32:00;22.55;;;20.92;;
10452;SDS011;5274;51.992;8.518;2023-06-22T09:34:27;21.50;;;19.80;;
10452;SDS011;5274;51.992;8.518;2023-06-22T09:36:53;22.70;;;20.90;;
10452;SDS011;5274;51.992;8.518;2023-06-22T09:39:20;23.02;;;21.23;;
10452;SDS011;5274;51.992;8.518;2023-06-22T09:41:45;22.33;;;20.42;;
10452;SDS011;5274;51.992;8.518;2023-06-22T09:44:11;22.08;;;20.55;;
10452;SDS011;5274;51.992;8.518;2023-06-22T09:46:37;60.15;;;56.13;;
10452;SDS011;5274;51.992;8.518;2023-06-22T09:49:03;54.58;;;51.08;;
10452;SDS011;5274;51.992;8.518;2023-06-22T09:51:29;56.67;;;52.97;;
10452;SDS011;5274;51.992;8.518;2023-06-22T09:53:55;60.08;;;55.92;;
10452;SDS011;5274;51.992;8.518;2023-06-22T09:56:21;58.22;;;54.40;;
10452;SDS011;5274;51.992;8.518;2023-06-22T09:58:47;58.30;;;54.40;;
10452;SDS011;5274;51.992;8.518;2023-06-22T10:01:15;56.72;;;52.65;;
10452;SDS011;5274;51.992;8.518;2023-06-22T10:03:41;55.85;;;52.00;;
10452;SDS011;5274;51.992;8.518;2023-06-22T10:06:07;59.83;;;55.53;;
10452;SDS011;5274;51.992;8.518;2023-06-22T10:08:34;56.88;;;53.05;;
10452;SDS011;5274;51.992;8.518;2023-06-22T10:11:00;55.17;;;51.42;;
10452;SDS011;5274;51.992;8.518;2023-06-22T10:13:26;54.85;;;51.33;;
10452;SDS011;5274;51.992;8.518;2023-06-22T10:15:52;59.67;;;55.17;;
10452;SDS011;5274;51.992;8.518;2023-06-22T10:18:18;57.13;;;52.83;;
10452;SDS011;5274;51.992;8.518;2023-06-22T10:20:46;57.85;;;53.78;;
10452;SDS011;5274;51.992;8.518;2023-06-22T10:23:12;55.50;;;51.75;;
10452;SDS011;5274;51.992;8.518;2023-06-22T10:25:38;57.60;;;53.58;;
10452;SDS011;5274;51.992;8.518;2023-06-22T10:28:04;56.58;;;52.85;;
10452;SDS011;5274;51.992;8.518;2023-06-22T10:30:30;56.17;;;52.25;;
10452;SDS011;5274;51.992;8.518;2023-06-22T10:32:56;54.88;;;51.25;;
10452;SDS011;5274;51.992;8.518;2023-06-22T10:35:22;55.05;;;51.38;;
10452;SDS011;5274;51.992;8.518;2023-06-22T10:37:48;55.45;;;51.50;;
10452;SDS011;5274;51.992;8.518;2023-06-22T10:40:14;55.33;;;51.40;;
10452;SDS011;5274;51.992;8.518;2023-06-22T10:42:41;54.40;;;50.75;;
10452;SDS011;5274;51.992;8.518;2023-06-22T10:45:07;52.15;;;48.50;;
10452;SDS011;5274;51.992;8.518;2023-06-22T10:47:33;52.75;;;49.22;;
10452;SDS011;5274;51.992;8.518;2023-06-22T10:49:59;52.53;;;48.90;;
10452;SDS011;5274;51.992;8.518;2023-06-22T10:52:25;54.13;;;50.53;;
10452;SDS011;5274;51.992;8.518;2023-06-22T10:54:51;54.53;;;50.78;;
10452;SDS011;5274;51.992;8.518;2023-06-22T10:57:17;57.30;;;53.47;;
10452;SDS011;5274;51.992;8.518;2023-06-22T10:59:43;55.70;;;52.00;;
10452;SDS011;5274;51.992;8.518;2023-06-22T11:02:09;54.80;;;51.17;;
10452;SDS011;5274;51.992;8.518;2023-06-22T11:04:35;53.33;;;49.90;;
10452;SDS011;5274;51.992;8.518;2023-06-22T11:07:01;54.30;;;50.67;;
10452;SDS011;5274;51.992;8.518;2023-06-22T11:09:27;51.30;;;47.67;;
10452;SDS011;5274;51.992;8.518;2023-06-22T11:11:53;53.70;;;50.13;;
10452;SDS011;5274;51.992;8.518;2023-06-22T11:14:19;52.33;;;49.03;;
10452;SDS011;5274;51.992;8.518;2023-06-22T11:16:45;52.72;;;49.13;;
10452;SDS011;5274;51.992;8.518;2023-06-22T11:19:11;54.35;;;50.75;;
10452;SDS011;5274;51.992;8.518;2023-06-22T11:21:37;52.28;;;49.08;;
10452;SDS011;5274;51.992;8.518;2023-06-22T11:24:03;54.13;;;50.45;;
10452;SDS011;5274;51.992;8.518;2023-06-22T11:26:29;54.08;;;50.67;;
10452;SDS011;5274;51.992;8.518;2023-06-22T11:28:56;53.78;;;50.47;;
10452;SDS011;5274;51.992;8.518;2023-06-22T11:31:22;58.58;;;54.78;;
10452;SDS011;5274;51.992;8.518;2023-06-22T11:33:48;57.00;;;53.40;;
10452;SDS011;5274;51.992;8.518;2023-06-22T11:36:14;61.47;;;57.17;;
10452;SDS011;5274;51.992;8.518;2023-06-22T11:38:40;58.03;;;54.42;;
10452;SDS011;5274;51.992;8.518;2023-06-22T11:41:07;60.53;;;56.72;;
10452;SDS011;5274;51.992;8.518;2023-06-22T11:43:33;58.25;;;54.40;;
10452;SDS011;5274;51.992;8.518;2023-06-22T11:45:59;55.05;;;51.50;;
10452;SDS011;5274;51.992;8.518;2023-06-22T11:48:25;52.38;;;49.17;;
10452;SDS011;5274;51.992;8.518;2023-06-22T11:50:51;58.75;;;54.88;;
10452;SDS011;5274;51.992;8.518;2023-06-22T11:53:17;54.88;;;51.45;;
10452;SDS011;5274;51.992;8.518;2023-06-22T11:55:43;56.33;;;52.53;;
10452;SDS011;5274;51.992;8.518;2023-06-22T11:58:10;50.92;;;47.83;;
10452;SDS011;5274;51.992;8.518;2023-06-22T12:00:36;58.63;;;54.80;;
10452;SDS011;5274;51.992;8.518;2023-06-22T12:03:02;54.85;;;51.30;;
10452;SDS011;5274;51.992;8.518;2023-06-22T12:05:28;56.67;;;52.85;;
10452;SDS011;5274;51.992;8.518;2023-06-22T12:07:54;55.67;;;51.33;;
10452;SDS011;5274;51.992;8.518;2023-06-22T12:10:24;53.67;;;50.17;;
10452;SDS011;5274;51.992;8.518;2023-06-22T12:12:50;49.83;;;46.72;;
10452;SDS011;5274;51.992;8.518;2023-06-22T12:15:16;54.45;;;50.97;;
10452;SDS011;5274;51.992;8.518;2023-06-22T12:17:42;54.58;;;51.17;;
10452;SDS011;5274;51.992;8.518;2023-06-22T12:20:08;50.70;;;47.45;;
10452;SDS011;5274;51.992;8.518;2023-06-22T12:22:34;54.33;;;50.85;;
10452;SDS011;5274;51.992;8.518;2023-06-22T12:25:02;58.55;;;54.63;;
10452;SDS011;5274;51.992;8.518;2023-06-22T12:27:29;59.88;;;56.00;;
10452;SDS011;5274;51.992;8.518;2023-06-22T12:29:57;54.15;;;50.05;;
10452;SDS011;5274;51.992;8.518;2023-06-22T12:32:23;52.17;;;48.95;;
10452;SDS011;5274;51.992;8.518;2023-06-22T12:34:50;56.00;;;52.30;;
10452;SDS011;5274;51.992;8.518;2023-06-22T12:37:16;50.40;;;47.03;;
10452;SDS011;5274;51.992;8.518;2023-06-22T12:39:42;56.25;;;52.75;;
10452;SDS011;5274;51.992;8.518;2023-06-22T12:42:08;47.60;;;44.50;;
10452;SDS011;5274;51.992;8.518;2023-06-22T12:44:35;48.72;;;45.28;;
10452;SDS011;5274;51.992;8.518;2023-06-22T12:47:00;55.95;;;52.25;;
10452;SDS011;5274;51.992;8.518;2023-06-22T12:49:26;53.38;;;49.80;;
10452;SDS011;5274;51.992;8.518;2023-06-22T12:51:52;53.95;;;50.33;;
10452;SDS011;5274;51.992;8.518;2023-06-22T12:54:18;47.58;;;44.38;;
10452;SDS011;5274;51.992;8.518;2023-06-22T12:56:44;47.80;;;44.72;;
10452;SDS011;5274;51.992;8.518;2023-06-22T12:59:10;50.72;;;47.20;;
10452;SDS011;5274;51.992;8.518;2023-06-22T13:01:36;54.75;;;51.05;;
10452;SDS011;5274;51.992;8.518;2023-06-22T13:04:02;52.65;;;49.15;;
10452;SDS011;5274;51.992;8.518;2023-06-22T13:06:28;51.45;;;47.92;;
10452;SDS011;5274;51.992;8.518;2023-06-22T13:08:54;52.45;;;48.92;;
10452;SDS011;5274;51.992;8.518;2023-06-22T13:11:20;55.05;;;51.15;;
10452;SDS011;5274;51.992;8.518;2023-06-22T13:13:46;54.63;;;50.92;;
10452;SDS011;5274;51.992;8.518;2023-06-22T13:16:12;49.17;;;45.83;;
10452;SDS011;5274;51.992;8.518;2023-06-22T13:18:38;49.80;;;46.22;;
10452;SDS011;5274;51.992;8.518;2023-06-22T13:21:04;55.17;;;51.00;;
10452;SDS011;5274;51.992;8.518;2023-06-22T13:23:30;52.38;;;48.53;;
10452;SDS011;5274;51.992;8.518;2023-06-22T13:25:57;55.38;;;51.38;;
10452;SDS011;5274;51.992;8.518;2023-06-22T13:28:23;50.58;;;47.17;;
10452;SDS011;5274;51.992;8.518;2023-06-22T13:30:49;52.88;;;49.00;;
10452;SDS011;5274;51.992;8.518;2023-06-22T13:33:15;50.60;;;47.03;;
10452;SDS011;5274;51.992;8.518;2023-06-22T13:35:41;50.92;;;47.22;;
10452;SDS011;5274;51.992;8.518;2023-06-22T13:38:08;54.10;;;50.05;;
10452;SDS011;5274;51.992;8.518;2023-06-22T13:40:34;53.13;;;49.38;;
10452;SDS011;5274;51.992;8.518;2023-06-22T13:43:00;54.45;;;50.30;;
10452;SDS011;5274;51.992;8.518;2023-06-22T13:45:26;49.50;;;45.83;;
10452;SDS011;5274;51.992;8.518;2023-06-22T13:47:52;49.47;;;45.78;;
10452;SDS011;5274;51.992;8.518;2023-06-22T13:50:18;50.38;;;46.28;;
10452;SDS011;5274;51.992;8.518;2023-06-22T13:52:44;51.50;;;46.95;;
10452;SDS011;5274;51.992;8.518;2023-06-22T13:55:10;53.13;;;48.80;;
10452;SDS011;5274;51.992;8.518;2023-06-22T13:57:36;52.67;;;48.63;;
10452;SDS011;5274;51.992;8.518;2023-06-22T14:00:03;53.75;;;49.67;;
10452;SDS011;5274;51.992;8.518;2023-06-22T14:02:37;52.25;;;48.38;;
10452;SDS011;5274;51.992;8.518;2023-06-22T14:05:04;51.22;;;47.42;;
10452;SDS011;5274;51.992;8.518;2023-06-22T14:07:31;51.30;;;47.45;;
10452;SDS011;5274;51.992;8.518;2023-06-22T14:09:57;54.00;;;50.05;;
10452;SDS011;5274;51.992;8.518;2023-06-22T14:12:23;55.70;;;51.50;;
10452;SDS011;5274;51.992;8.518;2023-06-22T14:14:49;54.08;;;49.85;;
10452;SDS011;5274;51.992;8.518;2023-06-22T14:17:15;56.42;;;51.50;;
10452;SDS011;5274;51.992;8.518;2023-06-22T14:19:41;53.70;;;49.63;;
10452;SDS011;5274;51.992;8.518;2023-06-22T14:22:07;51.80;;;47.80;;
10452;SDS011;5274;51.992;8.518;2023-06-22T14:24:33;51.83;;;47.90;;
10452;SDS011;5274;51.992;8.518;2023-06-22T14:26:59;50.20;;;46.35;;
10452;SDS011;5274;51.992;8.518;2023-06-22T14:29:27;50.45;;;46.60;;
10452;SDS011;5274;51.992;8.518;2023-06-22T14:31:53;52.70;;;48.53;;
10452;SDS011;5274;51.992;8.518;2023-06-22T14:34:19;56.83;;;52.60;;